Terminal Aerodrome Forecast
Issued by NWS

Home | Current Version | Previous Version | Text Only | Print | Product List | Glossary On
Versions: 1 2 3 4 5 6 7 8 9 10 11 12 13 14 15 16
000
FTUS45 KBOU 250538
TAFBJC
TAF
KBJC 250538Z 2506/2606 VRB05KT P6SM SCT080 BKN200
     FM251200 33010KT P6SM FEW120 SCT180
     FM251900 07009KT P6SM FEW080 SCT150 BKN220
     FM252200 10010KT P6SM SCT080 BKN120 PROB30 2522/2604 VRB15G25KT
      -TSRA BKN060CB
     FM260400 17008KT P6SM VCSH SCT050 BKN080=

USA.gov is the U.S. government's official web portal to all federal, state and local government web resources and services.